createdAt,value
2017-11-30T00:02:55.478Z,32.30
2017-11-30T00:05:56.933Z,36.13
2017-11-30T00:08:58.374Z,27.70
2017-11-30T00:11:59.941Z,25.40
2017-11-30T00:15:01.390Z,27.10
2017-11-30T00:18:02.843Z,25.50
2017-11-30T00:21:04.232Z,28.87
2017-11-30T00:24:05.657Z,25.13
2017-11-30T00:27:07.077Z,26.30
2017-11-30T00:30:08.488Z,27.60
2017-11-30T00:33:10.014Z,40.57
2017-11-30T00:36:11.373Z,24.50
2017-11-30T00:39:13.577Z,28.53
2017-11-30T00:42:33.484Z,32.53
2017-11-30T00:45:34.878Z,31.73
2017-11-30T00:48:37.095Z,27.77
2017-11-30T00:51:38.492Z,26.57
2017-11-30T00:54:39.886Z,46.53
2017-11-30T00:57:41.326Z,38.60
2017-11-30T01:00:42.757Z,41.87
2017-11-30T01:03:44.223Z,32.23
2017-11-30T01:06:46.349Z,32.77
2017-11-30T01:09:47.827Z,41.60
2017-11-30T01:12:49.182Z,31.17
2017-11-30T01:15:50.572Z,38.03
2017-11-30T01:18:52.028Z,39.50
2017-11-30T01:21:53.465Z,40.40
2017-11-30T01:24:55.605Z,45.77
2017-11-30T01:27:57.104Z,40.70
2017-11-30T01:30:58.454Z,42.27
2017-11-30T01:33:59.835Z,41.33
2017-11-30T01:37:01.279Z,46.60
2017-11-30T01:40:02.821Z,46.07
2017-11-30T01:43:04.314Z,43.93
2017-11-30T01:46:05.799Z,44.00
2017-11-30T01:49:07.939Z,49.47
2017-11-30T01:52:09.366Z,40.80
2017-11-30T01:55:10.800Z,43.10
2017-11-30T01:58:12.933Z,47.27
2017-11-30T02:01:15.082Z,46.07
2017-11-30T02:04:17.398Z,44.53
2017-11-30T02:07:19.557Z,46.50
2017-11-30T02:10:21.681Z,52.80
2017-11-30T02:13:23.897Z,44.47
2017-11-30T02:16:25.969Z,50.40
2017-11-30T02:19:28.134Z,50.00
2017-11-30T02:22:30.367Z,43.90
2017-11-30T02:25:31.790Z,41.03
2017-11-30T02:28:33.451Z,39.27
2017-11-30T02:31:34.913Z,42.33
2017-11-30T02:34:36.351Z,54.77
2017-11-30T02:37:37.722Z,53.43
2017-11-30T02:40:39.150Z,44.90
2017-11-30T02:43:40.613Z,42.63
2017-11-30T02:46:42.166Z,48.43
2017-11-30T02:49:43.591Z,31.80
2017-11-30T02:52:45.131Z,41.97
2017-11-30T02:55:47.262Z,44.33
2017-11-30T02:58:48.672Z,48.43
2017-11-30T03:01:50.062Z,42.37
2017-11-30T03:04:51.497Z,44.13
2017-11-30T03:07:52.922Z,44.50
2017-11-30T03:10:54.413Z,52.93
2017-11-30T03:13:55.840Z,50.57
2017-11-30T03:16:57.244Z,60.17
2017-11-30T03:19:58.746Z,56.60
2017-11-30T03:23:00.146Z,66.10
2017-11-30T03:26:01.626Z,60.63
2017-11-30T03:29:03.799Z,58.20
2017-11-30T03:32:06.046Z,69.57
2017-11-30T03:35:07.466Z,65.17
2017-11-30T03:38:08.871Z,59.07
2017-11-30T03:41:11.090Z,58.03
2017-11-30T03:44:12.476Z,57.57
2017-11-30T03:47:13.937Z,64.67
2017-11-30T03:50:15.277Z,72.17
2017-11-30T03:53:16.814Z,65.80
2017-11-30T03:56:18.161Z,74.73
2017-11-30T03:59:19.585Z,71.77
2017-11-30T04:02:20.991Z,63.00
2017-11-30T04:05:22.469Z,72.33
2017-11-30T04:08:23.901Z,62.53
2017-11-30T04:11:25.257Z,77.57
2017-11-30T04:14:27.370Z,73.60
2017-11-30T04:17:29.027Z,69.83
2017-11-30T04:20:30.435Z,64.93
2017-11-30T04:23:32.576Z,57.33
2017-11-30T04:26:33.934Z,69.30
2017-11-30T04:29:35.326Z,64.57
2017-11-30T04:32:36.712Z,68.03
2017-11-30T04:35:38.052Z,62.50
2017-11-30T04:38:39.435Z,63.10
2017-11-30T04:41:40.811Z,67.60
2017-11-30T04:44:43.075Z,66.43
2017-11-30T04:47:44.484Z,66.90
2017-11-30T04:50:45.861Z,66.63
2017-11-30T04:53:47.318Z,65.20
2017-11-30T04:56:48.712Z,61.07
2017-11-30T04:59:50.113Z,59.70
2017-11-30T05:02:51.680Z,68.37
2017-11-30T05:05:53.134Z,58.83
2017-11-30T05:08:54.541Z,67.43
2017-11-30T05:11:55.994Z,62.67
2017-11-30T05:14:57.416Z,61.47
2017-11-30T05:17:58.898Z,74.43
2017-11-30T05:21:00.428Z,66.63
2017-11-30T05:24:01.840Z,69.53
2017-11-30T05:27:03.281Z,63.23
2017-11-30T05:30:04.684Z,69.00
2017-11-30T05:33:06.093Z,68.53
2017-11-30T05:36:07.481Z,61.83
2017-11-30T05:39:09.589Z,66.87
2017-11-30T05:42:10.962Z,66.93
2017-11-30T05:45:12.333Z,65.93
2017-11-30T05:48:13.726Z,60.10
2017-11-30T05:51:15.090Z,62.83
2017-11-30T05:54:16.475Z,62.40
2017-11-30T05:57:17.875Z,65.73
2017-11-30T06:00:19.266Z,55.60
2017-11-30T06:03:20.712Z,70.10
2017-11-30T06:06:22.097Z,58.47
2017-11-30T06:09:23.564Z,53.57
2017-11-30T06:12:25.931Z,59.23
2017-11-30T06:15:28.124Z,59.67
2017-11-30T06:18:29.521Z,51.63
2017-11-30T06:21:30.939Z,53.80
2017-11-30T06:24:32.330Z,44.80
2017-11-30T06:27:33.751Z,52.00
2017-11-30T06:30:35.237Z,52.10
2017-11-30T06:33:36.623Z,46.37
2017-11-30T06:36:38.819Z,53.50
2017-11-30T06:39:40.240Z,44.90
2017-11-30T06:42:42.330Z,49.60
2017-11-30T06:45:43.733Z,46.33
2017-11-30T06:48:45.157Z,47.40
2017-11-30T06:51:46.592Z,42.77
2017-11-30T06:54:48.033Z,42.90
2017-11-30T06:57:49.416Z,43.40
2017-11-30T07:00:50.896Z,40.93
2017-11-30T07:03:52.311Z,47.30
2017-11-30T07:06:53.662Z,53.70
2017-11-30T07:09:55.071Z,41.73
2017-11-30T07:12:57.164Z,38.47
2017-11-30T07:15:58.501Z,48.73
2017-11-30T07:19:00.576Z,41.77
2017-11-30T07:22:02.686Z,53.93
2017-11-30T07:25:04.096Z,54.50
2017-11-30T07:28:05.436Z,46.93
2017-11-30T07:31:07.540Z,47.13
2017-11-30T07:34:08.915Z,59.97
2017-11-30T07:37:10.290Z,65.60
2017-11-30T07:40:11.665Z,62.10
2017-11-30T07:43:13.732Z,70.07
2017-11-30T07:46:15.749Z,66.03
2017-11-30T07:49:18.041Z,73.77
2017-11-30T08:18:33.928Z,120.53
2017-11-30T08:21:35.402Z,74.13
2017-11-30T08:24:36.852Z,94.20
2017-11-30T08:27:38.299Z,70.33
2017-11-30T08:30:39.884Z,67.33
2017-11-30T08:33:41.381Z,73.33
2017-11-30T08:36:42.881Z,76.80
2017-11-30T08:39:44.355Z,83.10
2017-11-30T08:42:45.750Z,66.10
2017-11-30T08:45:47.145Z,74.23
2017-11-30T08:48:48.681Z,70.30
2017-11-30T08:51:50.246Z,66.37
2017-11-30T08:54:51.717Z,70.17
2017-11-30T08:57:53.121Z,67.10
2017-11-30T09:00:54.467Z,67.23
2017-11-30T09:03:55.931Z,55.27
2017-11-30T09:06:57.306Z,63.77
2017-11-30T09:09:58.725Z,60.87
2017-11-30T09:13:00.095Z,66.60
2017-11-30T09:16:01.478Z,55.70
2017-11-30T09:19:02.967Z,59.23
2017-11-30T09:22:04.321Z,54.00
2017-11-30T09:25:05.737Z,66.87
2017-11-30T09:28:07.124Z,65.53
2017-11-30T09:31:08.479Z,59.33
2017-11-30T09:34:09.845Z,51.63
2017-11-30T09:37:11.237Z,49.00
2017-11-30T09:40:12.617Z,50.00
2017-11-30T09:43:13.980Z,59.07
2017-11-30T09:46:15.401Z,62.60
2017-11-30T09:49:16.791Z,63.93
2017-11-30T09:52:18.171Z,47.57
2017-11-30T09:55:19.630Z,44.03
2017-11-30T09:58:21.025Z,42.87
2017-11-30T10:01:23.147Z,44.23
2017-11-30T10:04:24.613Z,53.13
2017-11-30T10:07:25.961Z,46.40
2017-11-30T10:10:27.337Z,69.33
2017-11-30T10:13:29.482Z,60.50
2017-11-30T10:16:30.936Z,71.37
2017-11-30T10:19:32.306Z,70.67
2017-11-30T10:22:34.429Z,66.53
2017-11-30T10:25:35.757Z,62.90
2017-11-30T10:28:37.251Z,75.00
2017-11-30T10:31:38.618Z,73.30
2017-11-30T10:34:39.990Z,78.53
2017-11-30T10:37:42.088Z,77.63
2017-11-30T10:40:43.478Z,80.50
2017-11-30T10:43:44.818Z,69.83
2017-11-30T10:46:46.310Z,77.80
2017-11-30T10:49:48.423Z,62.17
2017-11-30T10:52:49.785Z,74.60
2017-11-30T10:55:51.233Z,72.03
2017-11-30T10:58:52.586Z,81.27
2017-11-30T11:01:54.070Z,65.67
2017-11-30T11:04:56.167Z,69.40
2017-11-30T11:07:57.677Z,81.87
2017-11-30T11:10:59.098Z,83.07
2017-11-30T11:14:00.478Z,77.40
2017-11-30T11:17:01.785Z,69.03
2017-11-30T11:20:03.185Z,66.97
2017-11-30T11:23:04.582Z,57.90
2017-11-30T11:26:05.944Z,51.93
2017-11-30T11:29:07.281Z,64.27
2017-11-30T11:32:08.727Z,61.47
2017-11-30T11:35:10.086Z,53.37
2017-11-30T11:38:11.438Z,49.43
2017-11-30T11:41:12.907Z,49.60
2017-11-30T11:44:14.298Z,43.90
2017-11-30T11:47:15.811Z,41.53
2017-11-30T11:50:17.158Z,48.00
2017-11-30T11:53:18.502Z,39.10
2017-11-30T11:56:19.859Z,39.23
2017-11-30T11:59:21.221Z,39.27
2017-11-30T12:02:22.605Z,33.53
2017-11-30T12:05:23.982Z,44.13
2017-11-30T12:08:25.343Z,41.57
2017-11-30T12:11:26.678Z,39.80
2017-11-30T12:14:28.799Z,34.53
2017-11-30T12:17:30.158Z,35.67
2017-11-30T12:20:31.536Z,35.80
2017-11-30T12:23:33.637Z,46.73
2017-11-30T12:26:35.186Z,41.93
2017-11-30T12:29:36.722Z,47.73
2017-11-30T12:32:38.809Z,47.07
2017-11-30T12:35:40.197Z,47.10
2017-11-30T12:38:41.953Z,50.17
2017-11-30T12:41:43.301Z,51.80
2017-11-30T12:44:44.643Z,41.70
2017-11-30T12:47:45.966Z,44.50
2017-11-30T12:50:47.306Z,39.23
2017-11-30T12:53:48.681Z,34.73
2017-11-30T12:56:50.068Z,40.53
2017-11-30T12:59:51.420Z,36.03
2017-11-30T13:02:52.880Z,42.73
2017-11-30T13:05:54.303Z,33.80
2017-11-30T13:08:55.654Z,33.57
2017-11-30T13:11:57.035Z,31.43
2017-11-30T13:14:58.356Z,33.43
2017-11-30T13:17:59.684Z,38.50
2017-11-30T13:21:01.055Z,34.00
2017-11-30T13:24:02.464Z,26.13
2017-11-30T13:27:04.572Z,36.13
2017-11-30T13:30:06.029Z,29.90
2017-11-30T13:33:07.399Z,36.77
2017-11-30T13:36:08.764Z,35.37
2017-11-30T13:39:10.180Z,34.13
2017-11-30T13:42:11.576Z,33.63
2017-11-30T13:45:13.692Z,26.27
2017-11-30T13:48:14.997Z,29.13
2017-11-30T13:51:17.092Z,36.47
2017-11-30T13:54:18.387Z,22.03
2017-11-30T13:57:19.781Z,28.40
2017-11-30T14:00:21.160Z,24.67
2017-11-30T14:03:22.515Z,25.40
2017-11-30T14:06:23.917Z,29.30
2017-11-30T14:09:26.013Z,28.43
2017-11-30T14:12:27.345Z,30.23
2017-11-30T14:15:29.396Z,28.40
2017-11-30T14:18:31.515Z,27.37
2017-11-30T14:21:32.934Z,27.50
2017-11-30T14:24:34.277Z,30.90
2017-11-30T14:27:36.416Z,31.77
2017-11-30T14:30:37.779Z,26.40
2017-11-30T14:33:39.080Z,27.23
2017-11-30T14:36:40.442Z,26.70
2017-11-30T14:39:41.827Z,36.07
2017-11-30T14:42:43.214Z,29.47
2017-11-30T14:45:45.344Z,32.87
2017-11-30T14:48:46.696Z,28.90
2017-11-30T14:51:48.064Z,29.40
2017-11-30T14:54:50.262Z,29.10
2017-11-30T14:57:51.625Z,34.10
2017-11-30T15:00:52.951Z,29.63
2017-11-30T15:03:54.413Z,39.43
2017-11-30T15:06:55.756Z,35.47
2017-11-30T15:09:57.084Z,33.60
2017-11-30T15:12:59.209Z,38.87
2017-11-30T15:16:00.587Z,39.17
2017-11-30T15:19:02.012Z,42.23
2017-11-30T15:22:04.517Z,38.03
2017-11-30T15:25:05.820Z,38.50
2017-11-30T15:28:07.389Z,36.53
2017-11-30T15:31:08.717Z,40.17
2017-11-30T15:34:10.591Z,44.60
2017-11-30T15:37:13.005Z,42.03
2017-11-30T15:40:14.479Z,44.93
2017-11-30T15:43:16.713Z,47.57
2017-11-30T15:46:18.182Z,54.70
2017-11-30T15:49:19.552Z,47.77
2017-11-30T15:52:21.633Z,127.13
2017-11-30T15:55:23.781Z,63.90
2017-11-30T15:58:25.277Z,49.40
2017-11-30T16:01:26.715Z,46.20
2017-11-30T16:04:28.080Z,51.80
2017-11-30T16:07:29.440Z,47.63
2017-11-30T16:10:30.824Z,43.87
2017-11-30T16:13:32.192Z,45.73
2017-11-30T16:16:34.319Z,40.30
2017-11-30T16:19:35.700Z,42.30
2017-11-30T16:22:37.282Z,38.43
2017-11-30T16:25:39.730Z,40.77
2017-11-30T16:28:41.897Z,33.30
2017-11-30T16:31:43.288Z,32.47
2017-11-30T16:34:44.697Z,39.57
2017-11-30T16:37:46.093Z,32.53
2017-11-30T16:40:47.531Z,44.10
2017-11-30T16:43:48.842Z,28.43
2017-11-30T16:46:50.287Z,29.27
2017-11-30T16:49:51.728Z,36.47
2017-11-30T16:52:53.099Z,30.50
2017-11-30T16:55:54.745Z,30.17
2017-11-30T16:58:56.861Z,34.83
2017-11-30T17:01:59.021Z,29.73
2017-11-30T17:05:08.101Z,27.67
2017-11-30T17:08:09.500Z,35.20
2017-11-30T17:11:11.632Z,27.40
2017-11-30T17:14:13.112Z,26.07
2017-11-30T17:17:15.051Z,30.70
2017-11-30T17:20:16.751Z,28.80
2017-11-30T17:23:18.636Z,34.00
2017-11-30T17:26:20.059Z,33.70
2017-11-30T17:29:22.508Z,41.13
2017-11-30T17:32:25.095Z,34.00
2017-11-30T17:35:27.839Z,34.70
2017-11-30T17:38:29.437Z,34.37
2017-11-30T17:41:31.204Z,33.83
2017-11-30T17:44:33.511Z,38.00
2017-11-30T17:47:35.262Z,33.10
2017-11-30T17:50:36.795Z,33.40
2017-11-30T17:53:38.284Z,32.20
2017-11-30T17:56:39.818Z,31.93
2017-11-30T17:59:42.356Z,36.53
2017-11-30T18:02:43.920Z,29.13
2017-11-30T18:05:45.536Z,28.60
2017-11-30T18:08:47.307Z,29.63
2017-11-30T18:11:49.195Z,29.30
2017-11-30T18:14:51.476Z,26.20
2017-11-30T18:17:52.885Z,25.27
2017-11-30T18:20:54.287Z,24.83
2017-11-30T18:23:55.656Z,24.27
2017-11-30T18:26:57.896Z,25.23
2017-11-30T18:29:59.860Z,30.13
2017-11-30T18:33:01.649Z,26.00
2017-11-30T18:36:03.457Z,24.30
2017-11-30T18:39:05.433Z,25.60
2017-11-30T18:42:07.053Z,23.67
2017-11-30T18:45:08.872Z,25.07
2017-11-30T18:48:10.435Z,25.03
2017-11-30T18:51:12.112Z,21.30
2017-11-30T18:54:14.229Z,25.20
2017-11-30T18:57:16.372Z,29.40
2017-11-30T19:00:18.745Z,30.97
2017-11-30T19:03:21.301Z,27.93
2017-11-30T19:06:24.867Z,45.43
2017-11-30T19:09:26.289Z,65.37
2017-11-30T19:12:29.017Z,43.83
2017-11-30T19:15:31.563Z,35.40
2017-11-30T19:18:33.168Z,31.03
2017-11-30T19:21:35.032Z,27.83
2017-11-30T19:24:37.280Z,27.97
2017-11-30T19:27:38.592Z,33.40
2017-11-30T19:30:40.938Z,38.07
2017-11-30T19:33:43.290Z,32.70
2017-11-30T19:36:44.699Z,34.17
2017-11-30T19:39:46.330Z,32.77
2017-11-30T19:42:47.692Z,34.30
2017-11-30T19:45:49.264Z,31.10
2017-11-30T19:48:50.657Z,39.40
2017-11-30T19:51:52.238Z,38.43
2017-11-30T19:54:53.608Z,41.00
2017-11-30T19:57:55.217Z,36.80
2017-11-30T20:00:57.681Z,39.13
2017-11-30T20:03:59.111Z,38.03
2017-11-30T20:07:00.619Z,36.80
2017-11-30T20:10:02.833Z,43.57
2017-11-30T20:13:04.386Z,40.87
2017-11-30T20:16:05.873Z,35.07
2017-11-30T20:19:07.377Z,36.67
2017-11-30T20:22:08.845Z,39.70
2017-11-30T20:25:10.315Z,38.83
2017-11-30T20:28:11.792Z,40.07
2017-11-30T20:31:13.434Z,38.37
2017-11-30T20:34:14.889Z,37.83
2017-11-30T20:37:16.328Z,38.57
2017-11-30T20:40:17.747Z,78.10
2017-11-30T20:43:19.841Z,64.83
2017-11-30T20:46:21.425Z,50.57
2017-11-30T20:49:22.809Z,56.60
2017-11-30T20:52:24.449Z,41.33
2017-11-30T20:55:25.984Z,33.97
2017-11-30T20:58:27.525Z,35.23
2017-11-30T21:01:28.974Z,36.47
2017-11-30T21:04:30.434Z,31.53
2017-11-30T21:07:31.824Z,29.50
2017-11-30T21:10:34.821Z,36.20
2017-11-30T21:13:36.626Z,27.07
2017-11-30T21:16:38.822Z,31.93
2017-11-30T21:19:40.340Z,28.23
2017-11-30T21:22:41.743Z,31.00
2017-11-30T21:25:43.322Z,29.50
2017-11-30T21:28:44.780Z,30.10
2017-11-30T21:31:46.455Z,23.70
2017-11-30T21:34:48.080Z,44.30
2017-11-30T21:37:49.536Z,30.57
2017-11-30T21:40:51.085Z,28.07
2017-11-30T21:43:52.451Z,39.90
2017-11-30T21:46:54.042Z,47.27
2017-11-30T21:49:56.253Z,57.33
2017-11-30T21:52:58.322Z,182.87
2017-11-30T21:55:59.779Z,93.13
2017-11-30T21:59:01.189Z,69.37
2017-11-30T22:02:03.995Z,67.80
2017-11-30T22:05:06.188Z,44.30
2017-11-30T22:08:07.612Z,37.87
2017-11-30T22:11:09.712Z,26.93
2017-11-30T22:14:11.584Z,25.70
2017-11-30T22:17:13.245Z,34.70
2017-11-30T22:20:15.431Z,27.00
2017-11-30T22:23:16.861Z,22.37
2017-11-30T22:26:33.165Z,31.37
2017-11-30T22:29:34.601Z,24.90
2017-11-30T22:32:35.981Z,25.20
2017-11-30T22:35:37.392Z,29.10
2017-11-30T22:38:38.787Z,28.70
2017-11-30T22:41:40.917Z,27.23
2017-11-30T22:44:42.357Z,33.77
2017-11-30T22:47:43.729Z,31.40
2017-11-30T22:50:45.193Z,26.93
2017-11-30T22:53:46.655Z,26.60
2017-11-30T22:56:48.110Z,29.00
2017-11-30T22:59:49.478Z,30.07
2017-11-30T23:02:50.904Z,30.00
2017-11-30T23:05:52.276Z,32.10
2017-11-30T23:08:53.684Z,38.03
2017-11-30T23:11:55.121Z,35.03
2017-11-30T23:14:56.476Z,28.70
2017-11-30T23:17:57.900Z,31.57
2017-11-30T23:21:00.036Z,37.77
2017-11-30T23:24:01.460Z,36.17
2017-11-30T23:27:02.828Z,35.83
2017-11-30T23:30:04.244Z,32.00
2017-11-30T23:33:06.508Z,34.50
2017-11-30T23:36:07.884Z,28.00
2017-11-30T23:39:09.329Z,32.20
2017-11-30T23:42:10.737Z,32.33
2017-11-30T23:45:12.145Z,27.50
2017-11-30T23:48:13.513Z,30.73
2017-11-30T23:51:14.908Z,28.00
2017-11-30T23:54:17.015Z,30.50
2017-11-30T23:57:18.438Z,34.60
